sensor_id;sensor_type;location;lat;lon;timestamp;temperature;humidity
1225;DHT22;602;48.000;7.840;2024-01-06T00:00:25;10.40;99.90
1225;DHT22;602;48.000;7.840;2024-01-06T00:02:52;10.40;99.90
1225;DHT22;602;48.000;7.840;2024-01-06T00:05:18;10.30;99.90
1225;DHT22;602;48.000;7.840;2024-01-06T00:07:45;10.40;99.90
1225;DHT22;602;48.000;7.840;2024-01-06T00:10:12;10.40;99.90
1225;DHT22;602;48.000;7.840;2024-01-06T00:12:39;10.40;99.90
1225;DHT22;602;48.000;7.840;2024-01-06T00:15:08;10.30;99.90
1225;DHT22;602;48.000;7.840;2024-01-06T00:17:36;10.10;99.90
1225;DHT22;602;48.000;7.840;2024-01-06T00:20:03;10.10;99.90
1225;DHT22;602;48.000;7.840;2024-01-06T00:22:30;10.20;99.90
1225;DHT22;602;48.000;7.840;2024-01-06T00:24:57;10.20;99.90
1225;DHT22;602;48.000;7.840;2024-01-06T00:27:25;10.10;99.90
1225;DHT22;602;48.000;7.840;2024-01-06T00:29:52;10.10;99.90
1225;DHT22;602;48.000;7.840;2024-01-06T00:32:20;9.90;99.90
1225;DHT22;602;48.000;7.840;2024-01-06T00:34:47;9.90;99.90
1225;DHT22;602;48.000;7.840;2024-01-06T00:37:14;9.90;99.90
1225;DHT22;602;48.000;7.840;2024-01-06T00:39:41;9.90;99.90
1225;DHT22;602;48.000;7.840;2024-01-06T00:42:07;9.90;99.90
1225;DHT22;602;48.000;7.840;2024-01-06T00:44:36;9.90;99.90
1225;DHT22;602;48.000;7.840;2024-01-06T00:47:03;9.80;99.90
1225;DHT22;602;48.000;7.840;2024-01-06T00:49:31;9.80;99.90
1225;DHT22;602;48.000;7.840;2024-01-06T00:51:58;9.90;99.90
1225;DHT22;602;48.000;7.840;2024-01-06T00:54:25;9.90;99.90
1225;DHT22;602;48.000;7.840;2024-01-06T00:56:52;9.80;99.90
1225;DHT22;602;48.000;7.840;2024-01-06T00:59:19;9.80;99.90
1225;DHT22;602;48.000;7.840;2024-01-06T01:01:45;9.80;99.90
1225;DHT22;602;48.000;7.840;2024-01-06T01:04:12;9.80;99.90
1225;DHT22;602;48.000;7.840;2024-01-06T01:06:40;9.90;99.90
1225;DHT22;602;48.000;7.840;2024-01-06T01:09:07;9.90;99.90
1225;DHT22;602;48.000;7.840;2024-01-06T01:11:36;10.00;99.90
1225;DHT22;602;48.000;7.840;2024-01-06T01:14:02;9.90;99.90
1225;DHT22;602;48.000;7.840;2024-01-06T01:16:29;10.00;99.90
1225;DHT22;602;48.000;7.840;2024-01-06T01:18:57;10.00;99.90
1225;DHT22;602;48.000;7.840;2024-01-06T01:21:24;10.00;99.90
1225;DHT22;602;48.000;7.840;2024-01-06T01:23:53;10.10;99.90
1225;DHT22;602;48.000;7.840;2024-01-06T01:26:20;10.10;99.90
1225;DHT22;602;48.000;7.840;2024-01-06T01:28:46;10.10;99.90
1225;DHT22;602;48.000;7.840;2024-01-06T01:31:13;10.10;99.90
1225;DHT22;602;48.000;7.840;2024-01-06T01:33:40;10.10;99.90
1225;DHT22;602;48.000;7.840;2024-01-06T01:36:07;10.10;99.90
1225;DHT22;602;48.000;7.840;2024-01-06T01:38:34;10.10;99.90
1225;DHT22;602;48.000;7.840;2024-01-06T01:41:02;10.20;99.90
1225;DHT22;602;48.000;7.840;2024-01-06T01:43:29;10.10;99.90
1225;DHT22;602;48.000;7.840;2024-01-06T01:45:57;10.10;99.90
1225;DHT22;602;48.000;7.840;2024-01-06T01:48:25;10.10;99.90
1225;DHT22;602;48.000;7.840;2024-01-06T01:50:53;9.90;99.90
1225;DHT22;602;48.000;7.840;2024-01-06T01:53:20;10.00;99.90
1225;DHT22;602;48.000;7.840;2024-01-06T01:55:47;9.90;99.90
1225;DHT22;602;48.000;7.840;2024-01-06T01:58:16;10.00;99.90
1225;DHT22;602;48.000;7.840;2024-01-06T02:00:43;9.90;99.90
1225;DHT22;602;48.000;7.840;2024-01-06T02:03:11;10.00;99.90
1225;DHT22;602;48.000;7.840;2024-01-06T02:05:39;10.00;99.90
1225;DHT22;602;48.000;7.840;2024-01-06T02:08:06;10.00;99.90
1225;DHT22;602;48.000;7.840;2024-01-06T02:10:33;9.90;99.90
1225;DHT22;602;48.000;7.840;2024-01-06T02:13:07;9.90;99.90
1225;DHT22;602;48.000;7.840;2024-01-06T02:15:36;9.90;99.90
1225;DHT22;602;48.000;7.840;2024-01-06T02:18:03;9.90;99.90
1225;DHT22;602;48.000;7.840;2024-01-06T02:20:31;9.90;99.90
1225;DHT22;602;48.000;7.840;2024-01-06T02:22:59;9.90;99.90
1225;DHT22;602;48.000;7.840;2024-01-06T02:25:26;9.80;99.90
1225;DHT22;602;48.000;7.840;2024-01-06T02:27:53;9.90;99.90
1225;DHT22;602;48.000;7.840;2024-01-06T02:30:20;9.80;99.90
1225;DHT22;602;48.000;7.840;2024-01-06T02:32:47;9.90;99.90
1225;DHT22;602;48.000;7.840;2024-01-06T02:35:14;9.90;99.90
1225;DHT22;602;48.000;7.840;2024-01-06T02:37:41;10.00;99.90
1225;DHT22;602;48.000;7.840;2024-01-06T02:40:10;10.00;99.90
1225;DHT22;602;48.000;7.840;2024-01-06T02:42:37;10.00;99.90
1225;DHT22;602;48.000;7.840;2024-01-06T02:45:04;10.00;99.90
1225;DHT22;602;48.000;7.840;2024-01-06T02:47:31;9.90;99.90
1225;DHT22;602;48.000;7.840;2024-01-06T02:49:58;9.90;99.90
1225;DHT22;602;48.000;7.840;2024-01-06T02:52:25;9.90;99.90
1225;DHT22;602;48.000;7.840;2024-01-06T02:54:52;9.90;99.90
1225;DHT22;602;48.000;7.840;2024-01-06T02:57:20;9.90;99.90
1225;DHT22;602;48.000;7.840;2024-01-06T02:59:47;9.80;99.90
1225;DHT22;602;48.000;7.840;2024-01-06T03:02:14;9.80;99.90
1225;DHT22;602;48.000;7.840;2024-01-06T03:04:40;9.80;99.90
1225;DHT22;602;48.000;7.840;2024-01-06T03:07:07;9.80;99.90
1225;DHT22;602;48.000;7.840;2024-01-06T03:09:34;9.70;99.90
1225;DHT22;602;48.000;7.840;2024-01-06T03:12:01;9.70;99.90
1225;DHT22;602;48.000;7.840;2024-01-06T03:14:29;9.80;99.90
1225;DHT22;602;48.000;7.840;2024-01-06T03:16:56;9.80;99.90
1225;DHT22;602;48.000;7.840;2024-01-06T03:19:24;9.70;99.90
1225;DHT22;602;48.000;7.840;2024-01-06T03:21:51;9.70;99.90
1225;DHT22;602;48.000;7.840;2024-01-06T03:24:18;9.70;99.90
1225;DHT22;602;48.000;7.840;2024-01-06T03:26:45;9.70;99.90
1225;DHT22;602;48.000;7.840;2024-01-06T03:29:12;9.60;99.90
1225;DHT22;602;48.000;7.840;2024-01-06T03:31:43;9.70;99.90
1225;DHT22;602;48.000;7.840;2024-01-06T03:34:10;9.70;99.90
1225;DHT22;602;48.000;7.840;2024-01-06T03:36:37;9.70;99.90
1225;DHT22;602;48.000;7.840;2024-01-06T03:39:04;9.70;99.90
1225;DHT22;602;48.000;7.840;2024-01-06T03:41:31;9.70;99.90
1225;DHT22;602;48.000;7.840;2024-01-06T03:43:58;9.70;99.90
1225;DHT22;602;48.000;7.840;2024-01-06T03:46:25;9.70;99.90
1225;DHT22;602;48.000;7.840;2024-01-06T03:48:53;9.80;99.90
1225;DHT22;602;48.000;7.840;2024-01-06T03:51:21;9.80;99.90
1225;DHT22;602;48.000;7.840;2024-01-06T03:53:48;9.70;99.90
1225;DHT22;602;48.000;7.840;2024-01-06T03:56:15;9.70;99.90
1225;DHT22;602;48.000;7.840;2024-01-06T03:58:42;9.60;99.90
1225;DHT22;602;48.000;7.840;2024-01-06T04:01:09;9.60;99.90
1225;DHT22;602;48.000;7.840;2024-01-06T04:03:36;9.60;99.90
1225;DHT22;602;48.000;7.840;2024-01-06T04:06:06;9.60;99.90
1225;DHT22;602;48.000;7.840;2024-01-06T04:08:32;9.60;99.90
1225;DHT22;602;48.000;7.840;2024-01-06T04:10:59;9.60;99.90
1225;DHT22;602;48.000;7.840;2024-01-06T04:13:26;9.50;99.90
1225;DHT22;602;48.000;7.840;2024-01-06T04:15:53;9.50;99.90
1225;DHT22;602;48.000;7.840;2024-01-06T04:18:20;9.50;99.90
1225;DHT22;602;48.000;7.840;2024-01-06T04:20:47;9.50;99.90
1225;DHT22;602;48.000;7.840;2024-01-06T04:23:15;9.50;99.90
1225;DHT22;602;48.000;7.840;2024-01-06T04:25:42;9.50;99.90
1225;DHT22;602;48.000;7.840;2024-01-06T04:28:09;9.40;99.90
1225;DHT22;602;48.000;7.840;2024-01-06T04:30:35;9.40;99.90
1225;DHT22;602;48.000;7.840;2024-01-06T04:33:03;9.40;99.90
1225;DHT22;602;48.000;7.840;2024-01-06T04:35:30;9.40;99.90
1225;DHT22;602;48.000;7.840;2024-01-06T04:40:39;9.40;99.90
1225;DHT22;602;48.000;7.840;2024-01-06T04:43:06;9.40;99.90
1225;DHT22;602;48.000;7.840;2024-01-06T04:45:33;9.40;99.90
1225;DHT22;602;48.000;7.840;2024-01-06T04:48:00;9.50;99.90
1225;DHT22;602;48.000;7.840;2024-01-06T04:50:27;9.50;99.90
1225;DHT22;602;48.000;7.840;2024-01-06T04:52:54;9.50;99.90
1225;DHT22;602;48.000;7.840;2024-01-06T04:55:20;9.60;99.90
1225;DHT22;602;48.000;7.840;2024-01-06T04:57:49;9.40;99.90
1225;DHT22;602;48.000;7.840;2024-01-06T05:00:16;9.40;99.90
1225;DHT22;602;48.000;7.840;2024-01-06T05:02:43;9.40;99.90
1225;DHT22;602;48.000;7.840;2024-01-06T05:05:10;9.30;99.90
1225;DHT22;602;48.000;7.840;2024-01-06T05:07:37;9.40;99.90
1225;DHT22;602;48.000;7.840;2024-01-06T05:10:05;9.40;99.90
1225;DHT22;602;48.000;7.840;2024-01-06T05:12:32;9.40;99.90
1225;DHT22;602;48.000;7.840;2024-01-06T05:15:00;9.40;99.90
1225;DHT22;602;48.000;7.840;2024-01-06T05:17:27;9.40;99.90
1225;DHT22;602;48.000;7.840;2024-01-06T05:19:55;9.40;99.90
1225;DHT22;602;48.000;7.840;2024-01-06T05:22:22;9.40;99.90
1225;DHT22;602;48.000;7.840;2024-01-06T05:24:49;9.30;99.90
1225;DHT22;602;48.000;7.840;2024-01-06T05:27:18;9.40;99.90
1225;DHT22;602;48.000;7.840;2024-01-06T05:29:44;9.30;99.90
1225;DHT22;602;48.000;7.840;2024-01-06T05:32:12;9.40;99.90
1225;DHT22;602;48.000;7.840;2024-01-06T05:34:39;9.40;99.90
1225;DHT22;602;48.000;7.840;2024-01-06T05:37:06;9.50;99.90
1225;DHT22;602;48.000;7.840;2024-01-06T05:39:33;9.50;99.90
1225;DHT22;602;48.000;7.840;2024-01-06T05:42:00;9.60;99.90
1225;DHT22;602;48.000;7.840;2024-01-06T05:44:27;9.50;99.90
1225;DHT22;602;48.000;7.840;2024-01-06T05:46:54;9.60;99.90
1225;DHT22;602;48.000;7.840;2024-01-06T05:49:22;9.60;99.90
1225;DHT22;602;48.000;7.840;2024-01-06T05:51:50;9.50;99.90
1225;DHT22;602;48.000;7.840;2024-01-06T05:54:17;9.60;99.90
1225;DHT22;602;48.000;7.840;2024-01-06T05:56:44;9.60;99.90
1225;DHT22;602;48.000;7.840;2024-01-06T05:59:11;9.60;99.90
1225;DHT22;602;48.000;7.840;2024-01-06T06:01:37;9.60;99.90
1225;DHT22;602;48.000;7.840;2024-01-06T06:04:04;9.50;99.90
1225;DHT22;602;48.000;7.840;2024-01-06T06:06:33;9.50;99.90
1225;DHT22;602;48.000;7.840;2024-01-06T06:09:00;9.50;99.90
1225;DHT22;602;48.000;7.840;2024-01-06T06:11:32;9.50;99.90
1225;DHT22;602;48.000;7.840;2024-01-06T06:13:59;9.40;99.90
1225;DHT22;602;48.000;7.840;2024-01-06T06:16:28;9.40;99.90
1225;DHT22;602;48.000;7.840;2024-01-06T06:18:55;9.40;99.90
1225;DHT22;602;48.000;7.840;2024-01-06T06:21:22;9.50;99.90
1225;DHT22;602;48.000;7.840;2024-01-06T06:23:50;9.50;99.90
1225;DHT22;602;48.000;7.840;2024-01-06T06:26:17;9.50;99.90
1225;DHT22;602;48.000;7.840;2024-01-06T06:28:44;9.40;99.90
1225;DHT22;602;48.000;7.840;2024-01-06T06:31:11;9.40;99.90
1225;DHT22;602;48.000;7.840;2024-01-06T06:33:37;9.40;99.90
1225;DHT22;602;48.000;7.840;2024-01-06T06:36:05;9.40;99.90
1225;DHT22;602;48.000;7.840;2024-01-06T06:38:32;9.40;99.90
1225;DHT22;602;48.000;7.840;2024-01-06T06:41:00;9.30;99.90
1225;DHT22;602;48.000;7.840;2024-01-06T06:43:27;9.40;99.90
1225;DHT22;602;48.000;7.840;2024-01-06T06:45:54;9.30;99.90
1225;DHT22;602;48.000;7.840;2024-01-06T06:48:21;9.30;99.90
1225;DHT22;602;48.000;7.840;2024-01-06T06:50:49;9.30;99.90
1225;DHT22;602;48.000;7.840;2024-01-06T06:53:15;9.30;99.90
1225;DHT22;602;48.000;7.840;2024-01-06T06:55:42;9.30;99.90
1225;DHT22;602;48.000;7.840;2024-01-06T06:58:11;9.20;99.90
1225;DHT22;602;48.000;7.840;2024-01-06T07:00:38;9.20;99.90
1225;DHT22;602;48.000;7.840;2024-01-06T07:03:05;9.20;99.90
1225;DHT22;602;48.000;7.840;2024-01-06T07:05:32;9.20;99.90
1225;DHT22;602;48.000;7.840;2024-01-06T07:08:00;9.10;99.90
1225;DHT22;602;48.000;7.840;2024-01-06T07:10:27;9.00;99.90
1225;DHT22;602;48.000;7.840;2024-01-06T07:12:54;9.10;99.90
1225;DHT22;602;48.000;7.840;2024-01-06T07:15:22;9.00;99.90
1225;DHT22;602;48.000;7.840;2024-01-06T07:17:49;8.90;99.90
1225;DHT22;602;48.000;7.840;2024-01-06T07:20:16;9.00;99.90
1225;DHT22;602;48.000;7.840;2024-01-06T07:22:43;9.00;99.90
1225;DHT22;602;48.000;7.840;2024-01-06T07:25:10;9.00;99.90
1225;DHT22;602;48.000;7.840;2024-01-06T07:27:37;9.00;99.90
1225;DHT22;602;48.000;7.840;2024-01-06T07:30:05;8.90;99.90
1225;DHT22;602;48.000;7.840;2024-01-06T07:32:34;8.90;99.90
1225;DHT22;602;48.000;7.840;2024-01-06T07:35:01;8.90;99.90
1225;DHT22;602;48.000;7.840;2024-01-06T07:37:28;8.90;99.90
1225;DHT22;602;48.000;7.840;2024-01-06T07:39:55;8.90;99.90
1225;DHT22;602;48.000;7.840;2024-01-06T07:42:22;8.80;99.90
1225;DHT22;602;48.000;7.840;2024-01-06T07:44:49;8.90;99.90
1225;DHT22;602;48.000;7.840;2024-01-06T07:47:16;9.00;99.90
1225;DHT22;602;48.000;7.840;2024-01-06T07:49:44;9.00;99.90
1225;DHT22;602;48.000;7.840;2024-01-06T07:52:12;8.90;99.90
1225;DHT22;602;48.000;7.840;2024-01-06T07:54:39;8.80;99.90
1225;DHT22;602;48.000;7.840;2024-01-06T07:57:06;8.90;99.90
1225;DHT22;602;48.000;7.840;2024-01-06T07:59:32;9.00;99.90
1225;DHT22;602;48.000;7.840;2024-01-06T08:01:59;8.90;99.90
1225;DHT22;602;48.000;7.840;2024-01-06T08:04:26;8.90;99.90
1225;DHT22;602;48.000;7.840;2024-01-06T08:06:54;9.00;99.90
1225;DHT22;602;48.000;7.840;2024-01-06T08:09:21;9.00;99.90
1225;DHT22;602;48.000;7.840;2024-01-06T08:11:49;8.90;99.90
1225;DHT22;602;48.000;7.840;2024-01-06T08:14:18;8.80;99.90
1225;DHT22;602;48.000;7.840;2024-01-06T08:16:45;8.80;99.90
1225;DHT22;602;48.000;7.840;2024-01-06T08:19:12;8.80;99.90
1225;DHT22;602;48.000;7.840;2024-01-06T08:21:39;8.80;99.90
1225;DHT22;602;48.000;7.840;2024-01-06T08:24:10;8.70;99.90
1225;DHT22;602;48.000;7.840;2024-01-06T08:26:37;8.80;99.90
1225;DHT22;602;48.000;7.840;2024-01-06T08:29:03;8.90;99.90
1225;DHT22;602;48.000;7.840;2024-01-06T08:31:30;9.00;99.90
1225;DHT22;602;48.000;7.840;2024-01-06T08:33:58;8.80;99.90
1225;DHT22;602;48.000;7.840;2024-01-06T08:36:25;8.80;99.90
1225;DHT22;602;48.000;7.840;2024-01-06T08:38:52;8.80;99.90
1225;DHT22;602;48.000;7.840;2024-01-06T08:41:21;8.80;99.90
1225;DHT22;602;48.000;7.840;2024-01-06T08:43:47;8.80;99.90
1225;DHT22;602;48.000;7.840;2024-01-06T08:46:17;8.80;99.90
1225;DHT22;602;48.000;7.840;2024-01-06T08:48:48;8.90;99.90
1225;DHT22;602;48.000;7.840;2024-01-06T08:51:18;8.90;99.90
1225;DHT22;602;48.000;7.840;2024-01-06T08:53:46;8.90;99.90
1225;DHT22;602;48.000;7.840;2024-01-06T08:56:12;8.90;99.90
1225;DHT22;602;48.000;7.840;2024-01-06T08:58:42;9.00;99.90
1225;DHT22;602;48.000;7.840;2024-01-06T09:01:09;9.00;99.90
1225;DHT22;602;48.000;7.840;2024-01-06T09:03:36;9.00;99.90
1225;DHT22;602;48.000;7.840;2024-01-06T09:06:04;9.00;99.90
1225;DHT22;602;48.000;7.840;2024-01-06T09:08:31;9.10;99.90
1225;DHT22;602;48.000;7.840;2024-01-06T09:11:00;9.10;99.90
1225;DHT22;602;48.000;7.840;2024-01-06T09:13:27;9.10;99.90
1225;DHT22;602;48.000;7.840;2024-01-06T09:15:55;9.10;99.90
1225;DHT22;602;48.000;7.840;2024-01-06T09:18:22;9.20;99.90
1225;DHT22;602;48.000;7.840;2024-01-06T09:20:49;9.30;99.90
1225;DHT22;602;48.000;7.840;2024-01-06T09:23:20;9.20;99.90
1225;DHT22;602;48.000;7.840;2024-01-06T09:25:47;9.30;99.90
1225;DHT22;602;48.000;7.840;2024-01-06T09:28:15;9.30;99.90
1225;DHT22;602;48.000;7.840;2024-01-06T09:30:42;9.30;99.90
1225;DHT22;602;48.000;7.840;2024-01-06T09:33:11;9.20;99.90
1225;DHT22;602;48.000;7.840;2024-01-06T09:35:41;9.10;99.90
1225;DHT22;602;48.000;7.840;2024-01-06T09:38:08;9.10;99.90
1225;DHT22;602;48.000;7.840;2024-01-06T09:40:35;9.20;99.90
1225;DHT22;602;48.000;7.840;2024-01-06T09:43:10;9.30;99.90
1225;DHT22;602;48.000;7.840;2024-01-06T09:45:38;9.30;99.90
1225;DHT22;602;48.000;7.840;2024-01-06T09:48:12;9.40;99.90
1225;DHT22;602;48.000;7.840;2024-01-06T09:50:41;9.30;99.90
1225;DHT22;602;48.000;7.840;2024-01-06T09:53:10;9.30;99.90
1225;DHT22;602;48.000;7.840;2024-01-06T09:55:38;9.40;99.90
1225;DHT22;602;48.000;7.840;2024-01-06T09:58:05;9.50;99.90
1225;DHT22;602;48.000;7.840;2024-01-06T10:00:32;9.50;99.90
1225;DHT22;602;48.000;7.840;2024-01-06T10:02:59;9.40;99.90
1225;DHT22;602;48.000;7.840;2024-01-06T10:05:27;9.40;99.90
1225;DHT22;602;48.000;7.840;2024-01-06T10:07:54;9.60;99.90
1225;DHT22;602;48.000;7.840;2024-01-06T10:10:22;9.50;99.90
1225;DHT22;602;48.000;7.840;2024-01-06T10:12:53;9.60;99.90
1225;DHT22;602;48.000;7.840;2024-01-06T10:15:21;9.60;99.90
1225;DHT22;602;48.000;7.840;2024-01-06T10:17:48;9.50;99.90
1225;DHT22;602;48.000;7.840;2024-01-06T10:20:15;9.50;99.90
1225;DHT22;602;48.000;7.840;2024-01-06T10:22:45;9.60;99.90
1225;DHT22;602;48.000;7.840;2024-01-06T10:25:12;9.60;99.90
1225;DHT22;602;48.000;7.840;2024-01-06T10:27:41;9.70;99.90
1225;DHT22;602;48.000;7.840;2024-01-06T10:30:09;9.70;99.90
1225;DHT22;602;48.000;7.840;2024-01-06T10:32:39;9.80;99.90
1225;DHT22;602;48.000;7.840;2024-01-06T10:35:06;9.80;99.90
1225;DHT22;602;48.000;7.840;2024-01-06T10:37:34;9.80;99.90
1225;DHT22;602;48.000;7.840;2024-01-06T10:40:08;9.80;99.90
1225;DHT22;602;48.000;7.840;2024-01-06T10:42:36;9.80;99.90
1225;DHT22;602;48.000;7.840;2024-01-06T10:45:07;9.90;99.90
1225;DHT22;602;48.000;7.840;2024-01-06T10:47:35;9.70;99.90
1225;DHT22;602;48.000;7.840;2024-01-06T10:50:02;9.80;99.90
1225;DHT22;602;48.000;7.840;2024-01-06T10:52:29;9.90;99.90
1225;DHT22;602;48.000;7.840;2024-01-06T10:54:57;10.10;99.90
1225;DHT22;602;48.000;7.840;2024-01-06T10:57:26;10.10;99.90
1225;DHT22;602;48.000;7.840;2024-01-06T10:59:54;10.10;99.90
1225;DHT22;602;48.000;7.840;2024-01-06T11:02:21;10.10;99.90
1225;DHT22;602;48.000;7.840;2024-01-06T11:04:49;10.20;99.90
1225;DHT22;602;48.000;7.840;2024-01-06T11:07:18;10.20;99.90
1225;DHT22;602;48.000;7.840;2024-01-06T11:09:48;10.00;99.90
1225;DHT22;602;48.000;7.840;2024-01-06T11:12:18;10.00;99.90
1225;DHT22;602;48.000;7.840;2024-01-06T11:14:46;10.00;99.90
1225;DHT22;602;48.000;7.840;2024-01-06T11:17:51;10.00;99.90
1225;DHT22;602;48.000;7.840;2024-01-06T11:20:26;10.10;99.90
1225;DHT22;602;48.000;7.840;2024-01-06T11:22:53;10.00;99.90
1225;DHT22;602;48.000;7.840;2024-01-06T11:25:22;9.90;99.90
1225;DHT22;602;48.000;7.840;2024-01-06T11:27:49;9.90;99.90
1225;DHT22;602;48.000;7.840;2024-01-06T11:30:24;9.90;99.90
1225;DHT22;602;48.000;7.840;2024-01-06T11:32:52;9.80;99.90
1225;DHT22;602;48.000;7.840;2024-01-06T11:35:21;10.00;99.90
1225;DHT22;602;48.000;7.840;2024-01-06T11:37:54;10.10;99.90
1225;DHT22;602;48.000;7.840;2024-01-06T11:40:31;10.10;99.90
1225;DHT22;602;48.000;7.840;2024-01-06T11:43:01;10.10;99.90
1225;DHT22;602;48.000;7.840;2024-01-06T11:45:30;10.20;99.90
1225;DHT22;602;48.000;7.840;2024-01-06T11:47:58;10.00;99.90
1225;DHT22;602;48.000;7.840;2024-01-06T11:50:26;10.10;99.90
1225;DHT22;602;48.000;7.840;2024-01-06T11:52:53;10.30;99.90
1225;DHT22;602;48.000;7.840;2024-01-06T11:55:20;10.30;99.90
1225;DHT22;602;48.000;7.840;2024-01-06T11:57:47;10.30;99.90
1225;DHT22;602;48.000;7.840;2024-01-06T12:00:15;10.30;99.90
1225;DHT22;602;48.000;7.840;2024-01-06T12:02:44;10.30;99.90
1225;DHT22;602;48.000;7.840;2024-01-06T12:05:15;10.30;99.90
1225;DHT22;602;48.000;7.840;2024-01-06T12:07:43;10.30;99.90
1225;DHT22;602;48.000;7.840;2024-01-06T12:10:10;10.40;99.90
1225;DHT22;602;48.000;7.840;2024-01-06T12:12:39;10.30;99.90
1225;DHT22;602;48.000;7.840;2024-01-06T12:15:07;10.30;99.90
1225;DHT22;602;48.000;7.840;2024-01-06T12:17:35;10.30;99.90
1225;DHT22;602;48.000;7.840;2024-01-06T12:20:04;10.30;99.90
1225;DHT22;602;48.000;7.840;2024-01-06T12:22:34;10.30;99.90
1225;DHT22;602;48.000;7.840;2024-01-06T12:25:02;10.10;99.90
1225;DHT22;602;48.000;7.840;2024-01-06T12:27:32;10.10;99.90
1225;DHT22;602;48.000;7.840;2024-01-06T12:29:59;10.20;99.90
1225;DHT22;602;48.000;7.840;2024-01-06T12:32:26;10.20;99.90
1225;DHT22;602;48.000;7.840;2024-01-06T12:34:53;10.10;99.90
1225;DHT22;602;48.000;7.840;2024-01-06T12:37:23;10.20;99.90
1225;DHT22;602;48.000;7.840;2024-01-06T12:39:50;10.30;99.90
1225;DHT22;602;48.000;7.840;2024-01-06T12:42:17;10.20;99.90
1225;DHT22;602;48.000;7.840;2024-01-06T12:44:45;10.10;99.90
1225;DHT22;602;48.000;7.840;2024-01-06T12:47:12;9.90;99.90
1225;DHT22;602;48.000;7.840;2024-01-06T12:49:39;9.70;99.90
1225;DHT22;602;48.000;7.840;2024-01-06T12:52:06;9.70;99.90
1225;DHT22;602;48.000;7.840;2024-01-06T12:54:35;9.70;99.90
1225;DHT22;602;48.000;7.840;2024-01-06T12:57:01;9.70;99.90
1225;DHT22;602;48.000;7.840;2024-01-06T12:59:29;9.70;99.90
1225;DHT22;602;48.000;7.840;2024-01-06T13:01:58;9.90;99.90
1225;DHT22;602;48.000;7.840;2024-01-06T13:04:28;9.80;99.90
1225;DHT22;602;48.000;7.840;2024-01-06T13:07:01;9.70;99.90
1225;DHT22;602;48.000;7.840;2024-01-06T13:09:29;9.70;99.90
1225;DHT22;602;48.000;7.840;2024-01-06T13:11:57;9.70;99.90
1225;DHT22;602;48.000;7.840;2024-01-06T13:14:26;9.70;99.90
1225;DHT22;602;48.000;7.840;2024-01-06T13:16:53;9.80;99.90
1225;DHT22;602;48.000;7.840;2024-01-06T13:19:19;9.80;99.90
1225;DHT22;602;48.000;7.840;2024-01-06T13:21:47;9.70;99.90
1225;DHT22;602;48.000;7.840;2024-01-06T13:24:13;9.60;99.90
1225;DHT22;602;48.000;7.840;2024-01-06T13:26:40;9.60;99.90
1225;DHT22;602;48.000;7.840;2024-01-06T13:29:09;9.60;99.90
1225;DHT22;602;48.000;7.840;2024-01-06T13:31:36;9.60;99.90
1225;DHT22;602;48.000;7.840;2024-01-06T13:34:04;9.60;99.90
1225;DHT22;602;48.000;7.840;2024-01-06T13:36:31;9.60;99.90
1225;DHT22;602;48.000;7.840;2024-01-06T13:38:58;9.60;99.90
1225;DHT22;602;48.000;7.840;2024-01-06T13:41:27;9.50;99.90
1225;DHT22;602;48.000;7.840;2024-01-06T13:43:54;9.50;99.90
1225;DHT22;602;48.000;7.840;2024-01-06T13:46:22;9.30;99.90
1225;DHT22;602;48.000;7.840;2024-01-06T13:48:50;9.50;99.90
1225;DHT22;602;48.000;7.840;2024-01-06T13:51:17;9.50;99.90
1225;DHT22;602;48.000;7.840;2024-01-06T13:53:50;9.50;99.90
1225;DHT22;602;48.000;7.840;2024-01-06T13:56:33;9.60;99.90
1225;DHT22;602;48.000;7.840;2024-01-06T13:59:08;9.60;99.90
1225;DHT22;602;48.000;7.840;2024-01-06T14:01:38;9.70;99.90
1225;DHT22;602;48.000;7.840;2024-01-06T14:04:05;9.80;99.90
1225;DHT22;602;48.000;7.840;2024-01-06T14:06:32;9.80;99.90
1225;DHT22;602;48.000;7.840;2024-01-06T14:09:01;9.60;99.90
1225;DHT22;602;48.000;7.840;2024-01-06T14:11:28;9.60;99.90
1225;DHT22;602;48.000;7.840;2024-01-06T14:13:57;9.50;99.90
1225;DHT22;602;48.000;7.840;2024-01-06T14:16:25;9.40;99.90
1225;DHT22;602;48.000;7.840;2024-01-06T14:18:53;9.40;99.90
1225;DHT22;602;48.000;7.840;2024-01-06T14:21:23;9.30;99.90
1225;DHT22;602;48.000;7.840;2024-01-06T14:23:51;9.30;99.90
1225;DHT22;602;48.000;7.840;2024-01-06T14:26:18;9.40;99.90
1225;DHT22;602;48.000;7.840;2024-01-06T14:28:45;9.50;99.90
1225;DHT22;602;48.000;7.840;2024-01-06T14:31:13;9.40;99.90
1225;DHT22;602;48.000;7.840;2024-01-06T14:33:43;9.40;99.90
1225;DHT22;602;48.000;7.840;2024-01-06T14:36:11;9.50;99.90
1225;DHT22;602;48.000;7.840;2024-01-06T14:38:38;9.40;99.90
1225;DHT22;602;48.000;7.840;2024-01-06T14:41:05;9.40;99.90
1225;DHT22;602;48.000;7.840;2024-01-06T14:43:32;9.40;99.90
1225;DHT22;602;48.000;7.840;2024-01-06T14:45:59;9.20;99.90
1225;DHT22;602;48.000;7.840;2024-01-06T14:48:26;9.20;99.90
1225;DHT22;602;48.000;7.840;2024-01-06T14:50:53;9.10;99.90
1225;DHT22;602;48.000;7.840;2024-01-06T14:53:22;9.10;99.90
1225;DHT22;602;48.000;7.840;2024-01-06T14:55:51;9.10;99.90
1225;DHT22;602;48.000;7.840;2024-01-06T14:58:18;9.10;99.90
1225;DHT22;602;48.000;7.840;2024-01-06T15:00:48;9.10;99.90
1225;DHT22;602;48.000;7.840;2024-01-06T15:03:15;9.20;99.90
1225;DHT22;602;48.000;7.840;2024-01-06T15:05:46;9.30;99.90
1225;DHT22;602;48.000;7.840;2024-01-06T15:08:14;9.20;99.90
1225;DHT22;602;48.000;7.840;2024-01-06T15:10:43;9.20;99.90
1225;DHT22;602;48.000;7.840;2024-01-06T15:13:13;9.20;99.90
1225;DHT22;602;48.000;7.840;2024-01-06T15:15:40;9.10;99.90
1225;DHT22;602;48.000;7.840;2024-01-06T15:18:07;9.00;99.90
1225;DHT22;602;48.000;7.840;2024-01-06T15:20:35;9.00;99.90
1225;DHT22;602;48.000;7.840;2024-01-06T15:23:03;9.20;99.90
1225;DHT22;602;48.000;7.840;2024-01-06T15:25:30;9.20;99.90
1225;DHT22;602;48.000;7.840;2024-01-06T15:27:58;9.20;99.90
1225;DHT22;602;48.000;7.840;2024-01-06T15:30:25;9.10;99.90
1225;DHT22;602;48.000;7.840;2024-01-06T15:32:53;9.10;99.90
1225;DHT22;602;48.000;7.840;2024-01-06T15:35:20;9.10;99.90
1225;DHT22;602;48.000;7.840;2024-01-06T15:37:47;9.10;99.90
1225;DHT22;602;48.000;7.840;2024-01-06T15:40:14;9.10;99.90
1225;DHT22;602;48.000;7.840;2024-01-06T15:42:41;9.10;99.90
1225;DHT22;602;48.000;7.840;2024-01-06T15:45:10;9.10;99.90
1225;DHT22;602;48.000;7.840;2024-01-06T15:47:37;9.20;99.90
1225;DHT22;602;48.000;7.840;2024-01-06T15:50:04;9.20;99.90
1225;DHT22;602;48.000;7.840;2024-01-06T15:52:33;9.20;99.90
1225;DHT22;602;48.000;7.840;2024-01-06T15:55:00;9.30;99.90
1225;DHT22;602;48.000;7.840;2024-01-06T15:57:27;9.20;99.90
1225;DHT22;602;48.000;7.840;2024-01-06T15:59:55;9.10;99.90
1225;DHT22;602;48.000;7.840;2024-01-06T16:02:24;9.20;99.90
1225;DHT22;602;48.000;7.840;2024-01-06T16:04:51;9.20;99.90
1225;DHT22;602;48.000;7.840;2024-01-06T16:07:17;9.30;99.90
1225;DHT22;602;48.000;7.840;2024-01-06T16:09:45;9.30;99.90
1225;DHT22;602;48.000;7.840;2024-01-06T16:12:12;9.10;99.90
1225;DHT22;602;48.000;7.840;2024-01-06T16:14:38;9.20;99.90
1225;DHT22;602;48.000;7.840;2024-01-06T16:17:05;9.30;99.90
1225;DHT22;602;48.000;7.840;2024-01-06T16:19:34;9.10;99.90
1225;DHT22;602;48.000;7.840;2024-01-06T16:22:01;9.20;99.90
1225;DHT22;602;48.000;7.840;2024-01-06T16:24:28;9.20;99.90
1225;DHT22;602;48.000;7.840;2024-01-06T16:26:55;9.10;99.90
1225;DHT22;602;48.000;7.840;2024-01-06T16:29:22;9.10;99.90
1225;DHT22;602;48.000;7.840;2024-01-06T16:31:49;9.10;99.90
1225;DHT22;602;48.000;7.840;2024-01-06T16:34:16;9.10;99.90
1225;DHT22;602;48.000;7.840;2024-01-06T16:36:44;9.10;99.90